createdAt,value
2019-04-22T00:03:10.683Z,7.17
2019-04-22T00:08:30.934Z,7.23
2019-04-22T00:13:25.960Z,7.10
2019-04-22T00:18:19.931Z,6.53
2019-04-22T00:23:13.244Z,7.10
2019-04-22T00:28:15.756Z,6.37
2019-04-22T00:33:08.014Z,5.90
2019-04-22T00:38:12.829Z,6.67
2019-04-22T00:43:11.324Z,6.70
2019-04-22T00:48:09.241Z,6.00
2019-04-22T00:53:04.561Z,6.40
2019-04-22T00:57:54.642Z,6.43
2019-04-22T01:02:54.576Z,6.90
2019-04-22T01:07:49.179Z,6.23
2019-04-22T01:12:44.389Z,6.87
2019-04-22T01:17:43.516Z,6.80
2019-04-22T01:22:32.972Z,7.23
2019-04-22T01:27:22.205Z,7.00
2019-04-22T01:32:13.177Z,7.13
2019-04-22T01:37:19.762Z,6.63
2019-04-22T01:42:18.741Z,6.73
2019-04-22T01:47:21.283Z,6.70
2019-04-22T01:52:15.461Z,6.97
2019-04-22T01:57:03.641Z,7.10
2019-04-22T02:02:09.268Z,7.27
2019-04-22T02:07:03.217Z,6.70
2019-04-22T02:12:00.225Z,7.00
2019-04-22T02:16:56.163Z,7.40
2019-04-22T02:21:48.803Z,7.30
2019-04-22T02:26:49.912Z,6.73
2019-04-22T02:31:45.338Z,7.20
2019-04-22T02:36:45.154Z,7.27
2019-04-22T03:06:29.580Z,6.50
2019-04-22T03:11:12.483Z,7.03
2019-04-22T03:16:17.738Z,6.60
2019-04-22T03:26:11.480Z,7.13
2019-04-22T03:32:01.956Z,7.03
2019-04-22T03:37:03.612Z,6.83
2019-04-22T03:41:39.301Z,7.43
2019-04-22T03:46:21.450Z,6.47
2019-04-22T03:51:26.861Z,7.37
2019-04-22T03:56:18.808Z,6.80
2019-04-22T04:01:19.711Z,6.53
2019-04-22T04:06:06.647Z,6.43
2019-04-22T04:10:53.513Z,7.13
2019-04-22T04:15:53.547Z,7.30
2019-04-22T04:21:09.037Z,6.87
2019-04-22T04:30:36.589Z,6.93
2019-04-22T04:45:40.002Z,7.00
2019-04-22T04:50:27.321Z,6.40
2019-04-22T05:15:11.605Z,6.83
2019-04-22T05:20:07.357Z,6.70
2019-04-22T05:24:59.776Z,6.57
2019-04-22T05:30:08.811Z,6.30
2019-04-22T05:34:48.622Z,6.47
2019-04-22T05:39:43.658Z,6.73
2019-04-22T05:44:44.071Z,6.30
2019-04-22T05:49:31.259Z,6.30
2019-04-22T05:59:28.884Z,6.13
2019-04-22T06:04:39.115Z,6.20
2019-04-22T06:09:20.539Z,6.23
2019-04-22T06:14:14.981Z,5.50
2019-04-22T06:19:16.818Z,5.80
2019-04-22T06:24:10.869Z,6.30
2019-04-22T06:29:01.336Z,6.00
2019-04-22T06:34:02.312Z,5.77
2019-04-22T06:38:55.282Z,6.40
2019-04-22T06:43:51.474Z,5.87
2019-04-22T06:48:43.992Z,5.70
2019-04-22T06:53:40.561Z,5.57
2019-04-22T06:58:36.578Z,6.07
2019-04-22T07:13:32.013Z,5.30
2019-04-22T07:18:28.730Z,5.57
2019-04-22T07:23:21.445Z,5.30
2019-04-22T07:28:11.233Z,4.90
2019-04-22T07:38:04.677Z,4.90
2019-04-22T07:43:02.514Z,5.03
2019-04-22T07:47:58.946Z,4.83
2019-04-22T07:52:45.013Z,4.40
2019-04-22T07:57:39.256Z,4.47
2019-04-22T08:02:38.008Z,5.00
2019-04-22T08:07:36.304Z,4.30
2019-04-22T08:12:36.014Z,4.90
2019-04-22T08:17:45.138Z,4.70
2019-04-22T08:22:14.225Z,4.73
2019-04-22T08:27:15.433Z,4.40
2019-04-22T08:32:15.067Z,4.60
2019-04-22T08:37:36.590Z,4.73
2019-04-22T08:41:57.604Z,4.77
2019-04-22T08:47:04.744Z,4.20
2019-04-22T08:51:59.027Z,4.00
2019-04-22T08:56:56.948Z,4.40
2019-04-22T09:01:41.940Z,4.33
2019-04-22T09:07:06.028Z,3.80
2019-04-22T09:11:41.774Z,3.67
2019-04-22T09:16:37.325Z,3.57
2019-04-22T09:21:32.634Z,4.03
2019-04-22T09:26:30.696Z,3.63
2019-04-22T09:31:19.616Z,3.83
2019-04-22T09:36:23.025Z,3.67
2019-04-22T09:41:13.954Z,3.90
2019-04-22T09:46:19.188Z,3.50
2019-04-22T09:51:09.829Z,3.70
2019-04-22T09:56:05.881Z,3.73
2019-04-22T10:01:38.587Z,3.57
2019-04-22T10:11:24.029Z,3.67
2019-04-22T10:16:10.465Z,3.80
2019-04-22T10:21:12.330Z,3.73
2019-04-22T10:25:59.111Z,3.70
2019-04-22T10:30:52.207Z,3.40
2019-04-22T10:35:30.303Z,3.73
2019-04-22T10:40:50.303Z,3.97
2019-04-22T10:45:44.280Z,3.93
2019-04-22T10:50:41.335Z,3.70
2019-04-22T10:55:35.104Z,3.90
2019-04-22T11:00:29.323Z,3.60
2019-04-22T11:05:24.081Z,3.50
2019-04-22T11:10:35.131Z,3.83
2019-04-22T11:15:13.934Z,3.80
2019-04-22T11:20:07.986Z,3.73
2019-04-22T11:25:01.480Z,3.80
2019-04-22T11:29:55.423Z,3.60
2019-04-22T11:34:49.110Z,3.97
2019-04-22T11:39:42.655Z,3.60
2019-04-22T11:44:37.150Z,3.90
2019-04-22T11:49:32.009Z,3.30
2019-04-22T11:54:25.365Z,3.70
2019-04-22T11:59:18.781Z,3.60
2019-04-22T12:04:13.707Z,3.40
2019-04-22T12:09:12.194Z,3.67
2019-04-22T12:14:06.227Z,3.60
2019-04-22T12:19:00.865Z,3.93
2019-04-22T12:23:55.006Z,3.67
2019-04-22T12:28:51.070Z,3.60
2019-04-22T12:33:45.396Z,3.63
2019-04-22T12:38:39.893Z,3.73
2019-04-22T12:43:33.694Z,3.57
2019-04-22T12:48:27.540Z,3.50
2019-04-22T12:53:24.105Z,3.73
2019-04-22T12:58:16.219Z,3.23
2019-04-22T13:03:11.055Z,3.40
2019-04-22T13:08:07.453Z,3.17
2019-04-22T13:13:00.961Z,3.27
2019-04-22T13:18:06.070Z,3.20
2019-04-22T13:22:50.562Z,3.37
2019-04-22T13:27:44.892Z,3.03
2019-04-22T13:32:38.822Z,3.30
2019-04-22T13:37:32.755Z,3.50
2019-04-22T13:42:27.580Z,3.20
2019-04-22T13:47:34.990Z,3.50
2019-04-22T13:52:48.589Z,3.10
2019-04-22T13:57:32.623Z,3.50
2019-04-22T14:02:46.474Z,3.17
2019-04-22T14:07:41.166Z,3.17
2019-04-22T14:12:35.305Z,2.90
2019-04-22T14:17:31.488Z,3.40
2019-04-22T14:22:26.263Z,3.30
2019-04-22T14:27:31.766Z,2.87
2019-04-22T14:32:19.331Z,2.93
2019-04-22T14:37:10.242Z,2.67
2019-04-22T14:42:27.016Z,3.33
2019-04-22T14:47:19.875Z,2.60
2019-04-22T14:52:16.401Z,3.50
2019-04-22T14:56:49.279Z,3.27
2019-04-22T15:01:43.521Z,2.67
2019-04-22T15:06:38.038Z,2.90
2019-04-22T15:11:44.870Z,3.63
2019-04-22T15:16:42.588Z,2.83
2019-04-22T15:21:36.716Z,3.00
2019-04-22T15:26:30.689Z,3.60
2019-04-22T15:31:24.311Z,3.03
2019-04-22T15:36:18.065Z,3.10
2019-04-22T15:41:12.505Z,3.20
2019-04-22T15:46:09.669Z,2.97
2019-04-22T15:51:04.703Z,3.50
2019-04-22T15:55:58.800Z,3.20
2019-04-22T16:01:04.186Z,3.20
2019-04-22T16:05:50.101Z,3.13
2019-04-22T16:10:43.992Z,3.10
2019-04-22T16:15:38.379Z,3.20
2019-04-22T16:20:32.179Z,2.90
2019-04-22T16:25:49.447Z,2.90
2019-04-22T16:30:43.596Z,3.37
2019-04-22T16:35:37.074Z,3.27
2019-04-22T16:40:30.565Z,3.00
2019-04-22T16:45:25.293Z,3.03
2019-04-22T16:50:18.984Z,2.73
2019-04-22T16:55:12.877Z,3.23
2019-04-22T17:00:08.899Z,3.13
2019-04-22T17:05:11.529Z,2.93
2019-04-22T17:10:08.068Z,2.93
2019-04-22T17:15:06.134Z,3.07
2019-04-22T17:19:57.685Z,3.13
2019-04-22T17:24:51.208Z,3.30
2019-04-22T17:29:44.573Z,3.30
2019-04-22T17:34:39.263Z,3.20
2019-04-22T17:39:45.366Z,3.30
2019-04-22T17:44:57.108Z,3.57
2019-04-22T17:49:57.937Z,3.27
2019-04-22T17:54:43.438Z,2.93
2019-04-22T17:59:45.219Z,3.37
2019-04-22T18:04:16.615Z,3.13
2019-04-22T18:09:57.942Z,3.37
2019-04-22T18:19:21.233Z,3.00
2019-04-22T18:24:09.340Z,2.83
2019-04-22T18:29:16.136Z,3.13
2019-04-22T18:34:04.105Z,2.87
2019-04-22T18:39:10.087Z,2.80
2019-04-22T18:44:06.173Z,2.70
2019-04-22T18:48:58.144Z,2.70
2019-04-22T18:54:19.735Z,2.97
2019-04-22T18:59:07.733Z,2.80
2019-04-22T19:03:58.222Z,3.03
2019-04-22T19:09:10.562Z,2.80
2019-04-22T19:14:07.484Z,2.70
2019-04-22T19:19:21.209Z,3.20
2019-04-22T19:23:53.999Z,2.63
2019-04-22T19:28:49.484Z,3.10
2019-04-22T19:33:49.294Z,2.67
2019-04-22T19:38:28.646Z,2.70
2019-04-22T19:43:35.618Z,2.40
2019-04-22T19:53:32.091Z,2.50
2019-04-22T19:58:18.257Z,2.70
2019-04-22T20:03:42.717Z,2.80
2019-04-22T20:08:30.236Z,2.73
2019-04-22T20:13:33.529Z,2.47
2019-04-22T20:23:15.910Z,3.13
2019-04-22T20:28:15.051Z,2.50
2019-04-22T20:33:06.408Z,2.40
2019-04-22T20:38:04.247Z,2.63
2019-04-22T20:43:01.685Z,2.30
2019-04-22T20:47:48.999Z,2.40
2019-04-22T20:57:49.525Z,2.60
2019-04-22T21:02:32.616Z,2.20
2019-04-22T21:07:32.514Z,2.30
2019-04-22T21:12:27.782Z,2.30
2019-04-22T21:17:31.171Z,2.50
2019-04-22T21:22:27.398Z,2.50
2019-04-22T21:27:45.638Z,2.33
2019-04-22T21:32:21.743Z,2.17
2019-04-22T21:37:33.024Z,2.20
2019-04-22T21:42:14.233Z,2.03
2019-04-22T21:47:14.582Z,1.97
2019-04-22T21:52:05.400Z,1.93
2019-04-22T22:02:11.776Z,2.40
2019-04-22T22:06:54.566Z,2.17
2019-04-22T22:11:52.623Z,1.97
2019-04-22T22:16:47.335Z,2.03
2019-04-22T22:22:05.979Z,1.77
2019-04-22T22:26:44.868Z,2.10
2019-04-22T22:31:47.269Z,2.37
2019-04-22T22:36:31.081Z,1.90
2019-04-22T22:41:10.081Z,1.93
2019-04-22T22:46:17.748Z,2.00
2019-04-22T22:51:32.541Z,2.30
2019-04-22T22:56:18.135Z,2.00
2019-04-22T23:01:04.198Z,2.17
2019-04-22T23:06:12.457Z,2.00
2019-04-22T23:11:05.091Z,2.10
2019-04-22T23:15:50.759Z,1.80
2019-04-22T23:20:38.249Z,1.90
2019-04-22T23:25:54.989Z,1.60
2019-04-22T23:30:58.045Z,1.90
2019-04-22T23:36:23.704Z,1.80
2019-04-22T23:46:28.471Z,1.83
2019-04-22T23:51:26.474Z,1.83
2019-04-22T23:56:27.005Z,1.77
